Buoy 13570

sailwx.info

Track history (hours):
 
Tides and Currents Weather Stations Pressure Air Temp Water Temp Dewpoint Dewpoint Depression Visibility Wind Speed Wind Dir Waves Ship Positions

Drifting buoy 13570

Last reported at 2015-Mar-28 08:00 UTC. Time now 2015-Mar-28 11:03 UTC.
Position N 36°07' W 024°54'.

Barometer 1033.7 mb
Water temperature 17.4 ° C

Date/timePositionNaut miles runAvg speedWind from/ knotsBaromVisibWave heightAir tempDewpointWater temp
2015-Mar-28 08:00N 36°07' W 024°54'1 0.9 1033.7 17.4
2015-Mar-28 07:00N 36°06' W 024°53'1 0.5 1033.2 17.4
2015-Mar-28 06:00N 36°06' W 024°53'1 0.3 1032.9 17.4
2015-Mar-28 04:00N 36°05' W 024°53'1 0.9 1032.9 17.4
2015-Mar-28 03:00N 36°04' W 024°53'1 1.4 1033.2 17.4
2015-Mar-28 02:00N 36°03' W 024°54'0 0.2 1033.4 17.4
2015-Mar-28 00:00N 36°03' W 024°54'2 0.8 1033.6 17.5
2015-Mar-27 22:00N 36°02' W 024°56'1 0.8 1033.1 17.5
2015-Mar-27 21:00N 36°02' W 024°56'1 0.6 1032.7 17.4
2015-Mar-27 19:00N 36°01' W 024°58'0 0.1 1031.0 17.5
2015-Mar-27 17:00N 36°01' W 024°58'0 0.0 1030.4 17.5
2015-Mar-27 16:00N 36°01' W 024°58'1 0.6 1030.1 17.5
2015-Mar-27 14:00N 36°01' W 024°59'0 0.3 1030.7 17.4
2015-Mar-27 13:00N 36°01' W 024°59'0 0.3 1031.1 17.4
2015-Mar-27 12:00N 36°01' W 024°59'1 0.7 1031.2 17.3
2015-Mar-27 11:00N 36°01' W 024°59'0 0.0 1031.3 17.3
2015-Mar-27 10:00N 36°01' W 024°59'1 0.3 1030.8 17.3
2015-Mar-27 07:00N 35°60' W 024°58'1 0.3 1030.0 17.3
2015-Mar-27 04:00N 35°60' W 024°59'1 0.4 1029.6 17.3
2015-Mar-27 00:00N 35°58' W 024°59'2 0.9 1030.7 17.4
2015-Mar-26 22:00N 35°56' W 024°58'7 0.5 1030.4 17.4
2015-Mar-26 08:00N 35°50' W 025°02'0 0.4 1029.2 17.5
2015-Mar-26 07:00N 35°49' W 025°02'1 0.4 1029.0 17.5
2015-Mar-26 05:00N 35°49' W 025°02'1 0.6 1029.0 17.4
2015-Mar-26 04:00N 35°48' W 025°03'1 0.2 1029.3 17.5
2015-Mar-25 23:00N 35°48' W 025°03'1 0.2 1029.9 17.5
2015-Mar-25 20:00N 35°47' W 025°04'0 0.0 1029.4 17.7
2015-Mar-25 19:00N 35°47' W 025°04'1 0.3 1029.1 17.7
2015-Mar-25 17:00N 35°47' W 025°04'2 1.5 1029.1 17.9
2015-Mar-25 16:00N 35°46' W 025°06'0 0.0 1029.3 17.5
2015-Mar-25 15:00N 35°46' W 025°06'1 0.2 1029.7 17.5
2015-Mar-25 11:00N 35°45' W 025°05'0 0.4 1030.8 17.2
2015-Mar-25 10:00N 35°45' W 025°05'0 0.3 1030.5 17.2
2015-Mar-25 09:00N 35°45' W 025°05'0 0.0 1030.3 17.2
2015-Mar-25 08:00N 35°45' W 025°05'1 0.7 1029.9 17.2
2015-Mar-25 07:00N 35°45' W 025°06'0 0.1 1029.5 17.2
2015-Mar-25 05:00N 35°45' W 025°06'1 0.6 1029.2 17.2
2015-Mar-25 04:00N 35°45' W 025°07'1 0.4 1029.5 17.2
2015-Mar-25 00:00N 35°44' W 025°08'1 0.1 1031.2 17.3
2015-Mar-24 20:00N 35°44' W 025°07'1 0.5 1030.4 17.4
2015-Mar-24 18:00N 35°45' W 025°08'1 0.2 1029.8 17.5
2015-Mar-24 14:00N 35°44' W 025°09'2 0.2 1031.1 17.5
2015-Mar-24 07:00N 35°45' W 025°07'4 0.3 1029.5 17.5
2015-Mar-23 17:00N 35°41' W 025°06'1 0.4 1029.1 17.7
2015-Mar-23 14:00N 35°40' W 025°06'1 0.1 1029.4 17.7
2015-Mar-23 06:00N 35°39' W 025°05'0 0.0 1026.9 17.6
2015-Mar-23 05:00N 35°39' W 025°05'1 0.5 1026.7 17.6
2015-Mar-23 04:00N 35°39' W 025°06'2 0.3 1026.7 17.6
2015-Mar-22 22:00N 35°38' W 025°04'2 0.9 1026.6 17.6
2015-Mar-22 20:00N 35°39' W 025°03'0 0.0 1025.5 17.6
2015-Mar-22 19:00N 35°39' W 025°03'1 0.3 1024.7 17.6
2015-Mar-22 16:00N 35°38' W 025°03'1 0.1 1024.1 17.6
2015-Mar-22 11:00N 35°38' W 025°02'0 0.0 1025.2 17.6
2015-Mar-22 10:00N 35°38' W 025°02'1 0.2 1025.1 17.6
2015-Mar-22 07:00N 35°38' W 025°01'2 0.5 1023.9 17.6
2015-Mar-22 04:00N 35°38' W 024°60'0 0.0 1023.8 17.6
2015-Mar-21 22:00N 35°37' W 024°59'1 0.9 1025.1 17.7
2015-Mar-21 21:00N 35°38' W 025°00'1 0.5 1024.7 17.7
2015-Mar-21 19:00N 35°37' W 024°60'1 0.3 1024.0 17.7
2015-Mar-21 17:00N 35°36' W 024°60'1 0.8 1023.8 17.7
2015-Mar-21 16:00N 35°36' W 024°59'1 0.4 1023.7 17.7
2015-Mar-21 13:00N 35°35' W 024°57'1 0.1 1024.7 17.7
2015-Mar-21 08:00N 35°36' W 024°57'2 0.5 1024.5 17.7
2015-Mar-21 03:00N 35°34' W 024°56'0 0.0 1024.7 17.7
2015-Mar-21 00:00N 35°34' W 024°56'2 0.3 1025.9 17.7
2015-Mar-20 18:00N 35°32' W 024°55'4 0.5 1024.5 17.8
2015-Mar-20 11:00N 35°30' W 024°51'1 0.8 1026.6 17.7
2015-Mar-20 10:00N 35°31' W 024°52'0 0.0 1026.3 17.7
2015-Mar-20 09:00N 35°31' W 024°52'2 0.2 1026.0 17.7
2015-Mar-20 02:00N 35°29' W 024°51'4 0.6 1026.8 17.7
2015-Mar-19 20:00N 35°27' W 024°47'1 0.2 1027.7 17.8
2015-Mar-19 16:00N 35°26' W 024°46'0 0.2 1027.9 17.8
2015-Mar-19 15:00N 35°26' W 024°46'3 0.3 1028.2 17.9
2015-Mar-19 07:00N 35°24' W 024°44'0 0.3 1028.9 17.8
2015-Mar-19 06:00N 35°24' W 024°44'1 0.3 1028.8 17.9
2015-Mar-19 04:00N 35°24' W 024°44'1 0.5 1029.6 17.9
2015-Mar-19 03:00N 35°23' W 024°44'2 2.1 1030.0 17.9
2015-Mar-19 02:00N 35°22' W 024°42'1 0.3 1030.2 17.9
2015-Mar-18 22:00N 35°21' W 024°42'0 0.3 1031.2 17.9
2015-Mar-18 21:00N 35°21' W 024°42'1 0.6 1030.6 18.0
2015-Mar-18 20:00N 35°20' W 024°41'1 1.4 1030.3 18.0
2015-Mar-18 19:00N 35°22' W 024°40'2 1.7 1030.1 18.0
2015-Mar-18 18:00N 35°20' W 024°41'1 0.9 1029.7 18.0
2015-Mar-18 17:00N 35°20' W 024°40'0 0.3 1029.9 18.0
2015-Mar-18 16:00N 35°20' W 024°40'0 0.2 1030.0 18.0
2015-Mar-18 14:00N 35°20' W 024°39'0 0.3 1030.9 18.0
2015-Mar-18 13:00N 35°20' W 024°40'1 0.7 1031.2 18.0
2015-Mar-18 12:00N 35°19' W 024°40'2 1.2 1031.5 18.0
2015-Mar-18 10:00N 35°17' W 024°41'   1031.2 18.0
Track history (hours):
 
Tides and Currents Weather Stations Pressure Air Temp Water Temp Dewpoint Dewpoint Depression Visibility Wind Speed Wind Dir Waves Ship Positions

Drifting buoy 13570

Last reported at 2015-Mar-28 08:00 UTC. Time now 2015-Mar-28 11:03 UTC.
Position N 36°07' W 024°54'.

Barometer 1033.7 mb
Water temperature 17.4 ° C

Date/timePositionNaut miles runAvg speedWind from/ knotsBaromVisibWave heightAir tempDewpointWater temp
2015-Mar-28 08:00N 36°07' W 024°54'1 0.9 1033.7 17.4
2015-Mar-28 07:00N 36°06' W 024°53'1 0.5 1033.2 17.4
2015-Mar-28 06:00N 36°06' W 024°53'1 0.3 1032.9 17.4
2015-Mar-28 04:00N 36°05' W 024°53'1 0.9 1032.9 17.4
2015-Mar-28 03:00N 36°04' W 024°53'1 1.4 1033.2 17.4
2015-Mar-28 02:00N 36°03' W 024°54'0 0.2 1033.4 17.4
2015-Mar-28 00:00N 36°03' W 024°54'2 0.8 1033.6 17.5
2015-Mar-27 22:00N 36°02' W 024°56'1 0.8 1033.1 17.5
2015-Mar-27 21:00N 36°02' W 024°56'1 0.6 1032.7 17.4
2015-Mar-27 19:00N 36°01' W 024°58'0 0.1 1031.0 17.5
2015-Mar-27 17:00N 36°01' W 024°58'0 0.0 1030.4 17.5
2015-Mar-27 16:00N 36°01' W 024°58'1 0.6 1030.1 17.5
2015-Mar-27 14:00N 36°01' W 024°59'0 0.3 1030.7 17.4
2015-Mar-27 13:00N 36°01' W 024°59'0 0.3 1031.1 17.4
2015-Mar-27 12:00N 36°01' W 024°59'1 0.7 1031.2 17.3
2015-Mar-27 11:00N 36°01' W 024°59'0 0.0 1031.3 17.3
2015-Mar-27 10:00N 36°01' W 024°59'1 0.3 1030.8 17.3
2015-Mar-27 07:00N 35°60' W 024°58'1 0.3 1030.0 17.3
2015-Mar-27 04:00N 35°60' W 024°59'1 0.4 1029.6 17.3
2015-Mar-27 00:00N 35°58' W 024°59'2 0.9 1030.7 17.4
2015-Mar-26 22:00N 35°56' W 024°58'7 0.5 1030.4 17.4
2015-Mar-26 08:00N 35°50' W 025°02'0 0.4 1029.2 17.5
2015-Mar-26 07:00N 35°49' W 025°02'1 0.4 1029.0 17.5
2015-Mar-26 05:00N 35°49' W 025°02'1 0.6 1029.0 17.4
2015-Mar-26 04:00N 35°48' W 025°03'1 0.2 1029.3 17.5
2015-Mar-25 23:00N 35°48' W 025°03'1 0.2 1029.9 17.5
2015-Mar-25 20:00N 35°47' W 025°04'0 0.0 1029.4 17.7
2015-Mar-25 19:00N 35°47' W 025°04'1 0.3 1029.1 17.7
2015-Mar-25 17:00N 35°47' W 025°04'2 1.5 1029.1 17.9
2015-Mar-25 16:00N 35°46' W 025°06'0 0.0 1029.3 17.5
2015-Mar-25 15:00N 35°46' W 025°06'1 0.2 1029.7 17.5
2015-Mar-25 11:00N 35°45' W 025°05'0 0.4 1030.8 17.2
2015-Mar-25 10:00N 35°45' W 025°05'0 0.3 1030.5 17.2
2015-Mar-25 09:00N 35°45' W 025°05'0 0.0 1030.3 17.2
2015-Mar-25 08:00N 35°45' W 025°05'1 0.7 1029.9 17.2
2015-Mar-25 07:00N 35°45' W 025°06'0 0.1 1029.5 17.2
2015-Mar-25 05:00N 35°45' W 025°06'1 0.6 1029.2 17.2
2015-Mar-25 04:00N 35°45' W 025°07'1 0.4 1029.5 17.2
2015-Mar-25 00:00N 35°44' W 025°08'1 0.1 1031.2 17.3
2015-Mar-24 20:00N 35°44' W 025°07'1 0.5 1030.4 17.4
2015-Mar-24 18:00N 35°45' W 025°08'1 0.2 1029.8 17.5
2015-Mar-24 14:00N 35°44' W 025°09'2 0.2 1031.1 17.5
2015-Mar-24 07:00N 35°45' W 025°07'4 0.3 1029.5 17.5
2015-Mar-23 17:00N 35°41' W 025°06'1 0.4 1029.1 17.7
2015-Mar-23 14:00N 35°40' W 025°06'1 0.1 1029.4 17.7
2015-Mar-23 06:00N 35°39' W 025°05'0 0.0 1026.9 17.6
2015-Mar-23 05:00N 35°39' W 025°05'1 0.5 1026.7 17.6
2015-Mar-23 04:00N 35°39' W 025°06'2 0.3 1026.7 17.6
2015-Mar-22 22:00N 35°38' W 025°04'2 0.9 1026.6 17.6
2015-Mar-22 20:00N 35°39' W 025°03'0 0.0 1025.5 17.6
2015-Mar-22 19:00N 35°39' W 025°03'1 0.3 1024.7 17.6
2015-Mar-22 16:00N 35°38' W 025°03'1 0.1 1024.1 17.6
2015-Mar-22 11:00N 35°38' W 025°02'0 0.0 1025.2 17.6
2015-Mar-22 10:00N 35°38' W 025°02'1 0.2 1025.1 17.6
2015-Mar-22 07:00N 35°38' W 025°01'2 0.5 1023.9 17.6
2015-Mar-22 04:00N 35°38' W 024°60'0 0.0 1023.8 17.6
2015-Mar-21 22:00N 35°37' W 024°59'1 0.9 1025.1 17.7
2015-Mar-21 21:00N 35°38' W 025°00'1 0.5 1024.7 17.7
2015-Mar-21 19:00N 35°37' W 024°60'1 0.3 1024.0 17.7
2015-Mar-21 17:00N 35°36' W 024°60'1 0.8 1023.8 17.7
2015-Mar-21 16:00N 35°36' W 024°59'1 0.4 1023.7 17.7
2015-Mar-21 13:00N 35°35' W 024°57'1 0.1 1024.7 17.7
2015-Mar-21 08:00N 35°36' W 024°57'2 0.5 1024.5 17.7
2015-Mar-21 03:00N 35°34' W 024°56'0 0.0 1024.7 17.7
2015-Mar-21 00:00N 35°34' W 024°56'2 0.3 1025.9 17.7
2015-Mar-20 18:00N 35°32' W 024°55'4 0.5 1024.5 17.8
2015-Mar-20 11:00N 35°30' W 024°51'1 0.8 1026.6 17.7
2015-Mar-20 10:00N 35°31' W 024°52'0 0.0 1026.3 17.7
2015-Mar-20 09:00N 35°31' W 024°52'2 0.2 1026.0 17.7
2015-Mar-20 02:00N 35°29' W 024°51'4 0.6 1026.8 17.7
2015-Mar-19 20:00N 35°27' W 024°47'1 0.2 1027.7 17.8
2015-Mar-19 16:00N 35°26' W 024°46'0 0.2 1027.9 17.8
2015-Mar-19 15:00N 35°26' W 024°46'3 0.3 1028.2 17.9
2015-Mar-19 07:00N 35°24' W 024°44'0 0.3 1028.9 17.8
2015-Mar-19 06:00N 35°24' W 024°44'1 0.3 1028.8 17.9
2015-Mar-19 04:00N 35°24' W 024°44'1 0.5 1029.6 17.9
2015-Mar-19 03:00N 35°23' W 024°44'2 2.1 1030.0 17.9
2015-Mar-19 02:00N 35°22' W 024°42'1 0.3 1030.2 17.9
2015-Mar-18 22:00N 35°21' W 024°42'0 0.3 1031.2 17.9
2015-Mar-18 21:00N 35°21' W 024°42'1 0.6 1030.6 18.0
2015-Mar-18 20:00N 35°20' W 024°41'1 1.4 1030.3 18.0
2015-Mar-18 19:00N 35°22' W 024°40'2 1.7 1030.1 18.0
2015-Mar-18 18:00N 35°20' W 024°41'1 0.9 1029.7 18.0
2015-Mar-18 17:00N 35°20' W 024°40'0 0.3 1029.9 18.0
2015-Mar-18 16:00N 35°20' W 024°40'0 0.2 1030.0 18.0
2015-Mar-18 14:00N 35°20' W 024°39'0 0.3 1030.9 18.0
2015-Mar-18 13:00N 35°20' W 024°40'1 0.7 1031.2 18.0
2015-Mar-18 12:00N 35°19' W 024°40'2 1.2 1031.5 18.0
2015-Mar-18 10:00N 35°17' W 024°41'   1031.2 18.0

Dump ship's entire track history